createdAt,value
2023-03-26T00:00:41.216Z,76.8577
2023-03-26T00:01:43.439Z,76.1479
2023-03-26T00:02:45.659Z,76.9395
2023-03-26T00:03:47.770Z,76.7895
2023-03-26T00:04:49.935Z,76.5311
2023-03-26T00:05:52.352Z,77.3716
2023-03-26T00:06:54.729Z,77.2379
2023-03-26T00:07:56.906Z,77.1656
2023-03-26T00:08:59.056Z,76.6849
2023-03-26T00:10:01.439Z,76.8370
2023-03-26T00:12:05.660Z,76.7619
2023-03-26T00:13:07.779Z,76.9077
2023-03-26T00:14:09.979Z,75.8850
2023-03-26T00:15:12.068Z,76.4927
2023-03-26T00:16:14.264Z,76.9017
2023-03-26T00:17:16.452Z,76.9739
2023-03-26T00:18:18.612Z,75.6943
2023-03-26T00:19:20.787Z,74.9397
2023-03-26T00:21:25.023Z,75.8518
2023-03-26T00:22:27.232Z,75.4024
2023-03-26T00:23:29.385Z,76.5534
2023-03-26T00:24:31.547Z,76.7884
2023-03-26T00:25:33.730Z,77.9000
2023-03-26T00:27:37.906Z,75.6171
2023-03-26T00:28:40.134Z,77.3664
2023-03-26T00:29:42.240Z,78.3575
2023-03-26T00:30:44.421Z,77.1871
2023-03-26T00:31:46.791Z,76.7845
2023-03-26T00:32:53.327Z,78.5276
2023-03-26T00:33:52.684Z,77.5039
2023-03-26T00:34:54.805Z,78.3520
2023-03-26T00:35:57.126Z,76.5393
2023-03-26T00:36:59.475Z,75.7071
2023-03-26T00:38:01.655Z,75.5422
2023-03-26T00:39:03.813Z,76.1436
2023-03-26T00:40:05.995Z,75.7581
2023-03-26T00:41:08.181Z,74.9277
2023-03-26T00:42:10.390Z,75.3521
2023-03-26T00:43:12.547Z,74.7338
2023-03-26T00:44:14.711Z,75.5112
2023-03-26T00:45:16.885Z,74.5937
2023-03-26T00:46:19.128Z,77.3765
2023-03-26T00:47:21.304Z,78.9863
2023-03-26T00:48:31.576Z,79.7648
2023-03-26T00:49:27.221Z,76.5146
2023-03-26T00:50:29.376Z,77.4930
2023-03-26T00:51:31.574Z,77.9954
2023-03-26T00:52:33.769Z,78.8248
2023-03-26T00:54:38.098Z,78.7400
2023-03-26T00:55:40.296Z,76.8425
2023-03-26T00:56:42.425Z,77.2892
2023-03-26T00:57:44.559Z,78.2355
2023-03-26T00:58:46.697Z,79.2275
2023-03-26T00:59:48.877Z,79.5791
2023-03-26T01:00:50.984Z,80.5026
2023-03-26T01:02:55.270Z,78.3742
2023-03-26T01:04:07.601Z,78.7781
2023-03-26T01:05:01.131Z,77.3759
2023-03-26T01:06:03.325Z,77.8172
2023-03-26T01:07:05.476Z,78.8475
2023-03-26T01:08:07.661Z,79.4122
2023-03-26T01:09:09.827Z,78.1581
2023-03-26T01:11:14.207Z,79.6474
2023-03-26T01:12:16.616Z,80.0799
2023-03-26T01:13:18.753Z,79.9347
2023-03-26T01:14:20.947Z,80.7742
2023-03-26T01:15:23.103Z,80.5651
2023-03-26T01:16:25.306Z,78.9974
2023-03-26T01:17:27.469Z,80.5445
2023-03-26T01:18:29.705Z,79.4156
2023-03-26T01:19:31.838Z,80.1746
2023-03-26T01:20:33.961Z,80.3628
2023-03-26T01:21:36.103Z,81.3724
2023-03-26T01:22:38.275Z,82.4845
2023-03-26T01:23:40.352Z,81.3848
2023-03-26T01:24:42.564Z,80.8532
2023-03-26T01:25:44.703Z,81.6460
2023-03-26T01:26:46.896Z,81.3945
2023-03-26T01:27:49.003Z,81.8972
2023-03-26T01:28:51.223Z,81.4919
2023-03-26T01:29:53.336Z,80.5499
2023-03-26T01:30:55.529Z,81.1341
2023-03-26T01:31:57.664Z,81.0500
2023-03-26T01:32:59.912Z,81.2454
2023-03-26T01:34:02.090Z,82.8733
2023-03-26T01:35:04.268Z,81.5249
2023-03-26T01:36:06.449Z,83.7180
2023-03-26T01:37:08.724Z,83.3182
2023-03-26T01:38:11.067Z,82.3123
2023-03-26T01:39:13.729Z,82.6999
2023-03-26T01:40:15.884Z,82.3073
2023-03-26T01:41:18.114Z,82.1005
2023-03-26T01:42:20.311Z,80.4545
2023-03-26T01:43:22.517Z,81.5599
2023-03-26T01:44:24.691Z,80.7780
2023-03-26T01:45:26.914Z,81.1741
2023-03-26T01:46:29.200Z,82.0538
2023-03-26T01:47:31.362Z,81.7949
2023-03-26T01:48:33.495Z,83.1206
2023-03-26T01:49:35.734Z,83.6338
2023-03-26T01:50:37.927Z,83.0791
2023-03-26T01:51:40.273Z,81.3864
2023-03-26T01:52:42.484Z,83.3170
2023-03-26T01:53:44.665Z,82.4995
2023-03-26T01:54:46.894Z,83.3799
2023-03-26T01:55:49.046Z,82.2349
2023-03-26T01:56:51.297Z,82.1217
2023-03-26T01:57:53.460Z,82.9237
2023-03-26T01:58:55.659Z,82.2387
2023-03-26T01:59:57.882Z,83.8794
2023-03-26T02:01:00.038Z,83.4521
2023-03-26T02:02:02.331Z,84.3180
2023-03-26T02:03:04.564Z,84.3885
2023-03-26T02:04:06.864Z,84.2060
2023-03-26T02:06:11.078Z,83.5532
2023-03-26T02:07:13.267Z,84.2031
2023-03-26T02:11:23.220Z,82.3890
2023-03-26T02:13:27.744Z,81.1983
2023-03-26T02:14:29.949Z,80.7858
2023-03-26T02:15:32.131Z,81.1364
2023-03-26T02:16:34.374Z,81.9466
2023-03-26T02:17:36.623Z,81.8945
2023-03-26T02:18:38.888Z,81.2674
2023-03-26T02:20:43.071Z,82.7107
2023-03-26T02:21:45.252Z,83.0012
2023-03-26T02:22:47.480Z,81.7594
2023-03-26T02:23:49.694Z,82.4622
2023-03-26T02:24:51.878Z,82.8308
2023-03-26T02:25:54.154Z,84.8292
2023-03-26T02:26:56.711Z,84.8192
2023-03-26T02:27:58.919Z,84.7380
2023-03-26T02:29:01.174Z,83.5559
2023-03-26T02:30:03.394Z,84.1330
2023-03-26T02:31:05.632Z,83.7352
2023-03-26T02:32:07.823Z,83.2514
2023-03-26T02:33:10.072Z,84.1119
2023-03-26T02:34:12.256Z,85.0514
2023-03-26T02:35:14.551Z,84.2354
2023-03-26T02:36:16.883Z,84.2989
2023-03-26T02:37:19.139Z,84.2796
2023-03-26T02:38:21.364Z,83.5568
2023-03-26T02:39:23.812Z,84.7617
2023-03-26T02:40:25.989Z,85.0823
2023-03-26T02:41:28.219Z,84.7429
2023-03-26T02:42:30.405Z,84.0629
2023-03-26T02:43:32.603Z,83.0868
2023-03-26T02:45:36.954Z,82.9496
2023-03-26T02:46:39.182Z,82.3920
2023-03-26T02:47:41.425Z,81.3150
2023-03-26T02:48:43.623Z,81.3325
2023-03-26T02:49:45.896Z,80.9670
2023-03-26T02:50:48.052Z,80.9288
2023-03-26T02:51:50.275Z,80.7955
2023-03-26T02:52:52.433Z,80.1477
2023-03-26T02:53:54.667Z,80.5594
2023-03-26T02:54:56.864Z,80.7565
2023-03-26T02:57:01.176Z,80.4352
2023-03-26T02:58:03.390Z,80.9396
2023-03-26T02:59:05.630Z,80.4639
2023-03-26T03:00:07.867Z,81.0409
2023-03-26T03:01:10.090Z,80.4788
2023-03-26T03:02:12.308Z,80.7763
2023-03-26T03:03:14.460Z,81.1043
2023-03-26T03:04:16.731Z,81.2424
2023-03-26T03:05:18.965Z,81.6644
2023-03-26T03:06:21.133Z,81.1488
2023-03-26T03:07:23.396Z,80.5378
2023-03-26T03:08:25.623Z,82.5065
2023-03-26T03:09:27.791Z,81.6063
2023-03-26T03:10:29.940Z,81.8882
2023-03-26T03:11:32.187Z,81.8393
2023-03-26T03:12:34.389Z,82.1682
2023-03-26T03:13:36.568Z,83.1782
2023-03-26T03:14:38.745Z,83.0079
2023-03-26T03:15:40.930Z,82.4957
2023-03-26T03:16:43.158Z,83.1679
2023-03-26T03:17:45.423Z,82.7969
2023-03-26T03:18:47.595Z,84.3197
2023-03-26T03:19:49.750Z,85.0884
2023-03-26T03:20:51.986Z,84.9159
2023-03-26T03:21:54.163Z,85.1394
2023-03-26T03:22:56.466Z,85.4416
2023-03-26T03:24:00.071Z,86.9057
2023-03-26T03:25:02.712Z,86.8458
2023-03-26T03:26:04.941Z,86.4122
2023-03-26T03:27:07.127Z,86.3167
2023-03-26T03:28:09.274Z,85.5296
2023-03-26T03:29:11.503Z,86.6597
2023-03-26T03:30:13.735Z,86.5514
2023-03-26T03:31:15.936Z,85.9169
2023-03-26T03:32:18.132Z,85.4949
2023-03-26T03:33:20.331Z,85.7712
2023-03-26T03:34:22.517Z,86.6409
2023-03-26T03:35:24.805Z,86.2242
2023-03-26T03:36:27.051Z,85.4504
2023-03-26T03:37:29.221Z,86.5216
2023-03-26T03:38:31.422Z,86.2017
2023-03-26T03:39:33.675Z,85.4118
2023-03-26T03:40:35.856Z,84.1711
2023-03-26T03:41:38.069Z,85.2819
2023-03-26T03:42:40.310Z,86.9490
2023-03-26T03:44:44.702Z,88.1041
2023-03-26T03:45:46.956Z,88.9604
2023-03-26T03:46:49.200Z,89.1455
2023-03-26T03:47:51.406Z,89.2331
2023-03-26T03:48:53.580Z,89.5450
2023-03-26T03:49:55.855Z,88.9756
2023-03-26T03:50:58.112Z,88.9424
2023-03-26T03:52:00.370Z,89.7471
2023-03-26T03:53:02.577Z,88.8472
2023-03-26T03:54:04.797Z,88.1851
2023-03-26T03:55:06.994Z,87.0587
2023-03-26T03:56:09.155Z,86.7132
2023-03-26T03:57:11.502Z,87.4586
2023-03-26T03:58:13.666Z,86.2813
2023-03-26T03:59:15.863Z,86.0163
2023-03-26T04:00:18.179Z,85.0859
2023-03-26T04:01:20.350Z,84.4478
2023-03-26T04:02:22.618Z,85.6223
2023-03-26T04:03:33.489Z,84.5838
2023-03-26T04:04:28.516Z,84.6895
2023-03-26T04:05:30.702Z,85.3813
2023-03-26T04:06:32.893Z,85.7181
2023-03-26T04:07:35.063Z,85.2988
2023-03-26T04:08:37.275Z,85.0285
2023-03-26T04:09:39.503Z,84.1481
2023-03-26T04:13:47.857Z,83.7890
2023-03-26T04:14:50.076Z,84.4044
2023-03-26T04:15:52.425Z,86.5602
2023-03-26T04:17:56.878Z,85.7922
2023-03-26T04:18:59.114Z,84.4966
2023-03-26T04:20:01.293Z,86.1788
2023-03-26T04:21:03.500Z,85.6402
2023-03-26T04:22:05.699Z,86.8445
2023-03-26T04:23:07.916Z,85.4511
2023-03-26T04:24:10.122Z,86.4748
2023-03-26T04:25:12.260Z,86.7432
2023-03-26T04:26:14.515Z,86.2979
2023-03-26T04:27:16.653Z,87.0576
2023-03-26T04:28:18.887Z,85.1649
2023-03-26T04:29:21.082Z,85.4608
2023-03-26T04:30:23.285Z,86.4408
2023-03-26T04:31:25.446Z,85.9743
2023-03-26T04:32:27.689Z,83.7501
2023-03-26T04:33:29.837Z,82.9607
2023-03-26T04:35:34.147Z,83.8714
2023-03-26T04:36:36.281Z,84.5353
2023-03-26T04:37:38.485Z,84.3957
2023-03-26T04:38:40.700Z,84.7488
2023-03-26T04:39:42.863Z,84.6406
2023-03-26T04:40:45.101Z,84.2732
2023-03-26T04:41:47.358Z,84.2778
2023-03-26T04:42:49.606Z,83.4042
2023-03-26T04:44:53.842Z,85.8334
2023-03-26T04:45:56.125Z,85.1021
2023-03-26T04:46:58.635Z,83.7239
2023-03-26T04:48:00.881Z,84.1017
2023-03-26T04:49:03.184Z,84.1288
2023-03-26T04:50:05.404Z,84.5131
2023-03-26T04:51:07.658Z,85.2378
2023-03-26T04:52:09.865Z,83.9137
2023-03-26T04:53:12.033Z,84.1422
2023-03-26T04:54:14.264Z,84.6426
2023-03-26T04:56:18.509Z,85.7100
2023-03-26T04:57:20.686Z,84.3634
2023-03-26T04:58:22.873Z,83.8855
2023-03-26T04:59:25.081Z,83.9612
2023-03-26T05:00:27.269Z,84.3073
2023-03-26T05:01:29.533Z,84.6924
2023-03-26T05:02:31.830Z,84.2717
2023-03-26T05:03:34.050Z,84.7841
2023-03-26T05:04:36.274Z,85.6885
2023-03-26T05:05:38.492Z,84.4015
2023-03-26T05:06:40.675Z,84.3390
2023-03-26T05:07:42.906Z,85.7935
2023-03-26T05:08:45.079Z,84.8511
2023-03-26T05:09:47.308Z,86.0277
2023-03-26T05:10:49.460Z,86.8637
2023-03-26T05:12:53.686Z,85.3545
2023-03-26T05:13:55.892Z,85.0366
2023-03-26T05:14:58.099Z,85.9351
2023-03-26T05:16:00.282Z,86.1339
2023-03-26T05:17:02.508Z,85.4407
2023-03-26T05:18:04.722Z,84.3830
2023-03-26T05:21:11.074Z,85.4505
2023-03-26T05:22:13.273Z,84.7217
2023-03-26T05:23:15.518Z,86.4813
2023-03-26T05:24:17.631Z,85.8253
2023-03-26T05:25:19.900Z,85.1067
2023-03-26T05:26:22.148Z,84.5281
2023-03-26T05:27:24.327Z,83.6661
2023-03-26T05:28:26.546Z,85.1433
2023-03-26T05:29:28.799Z,85.0406
2023-03-26T05:30:30.994Z,84.8925
2023-03-26T05:31:33.182Z,86.5636
2023-03-26T05:32:35.392Z,85.7971
2023-03-26T05:33:37.751Z,85.9711
2023-03-26T05:34:40.016Z,86.7744
2023-03-26T05:35:42.281Z,86.6485
2023-03-26T05:36:44.442Z,85.4725
2023-03-26T05:37:46.653Z,83.5692
2023-03-26T05:38:48.819Z,83.5713
2023-03-26T05:39:51.056Z,84.3969
2023-03-26T05:40:53.595Z,86.2707
2023-03-26T05:41:55.994Z,85.6378
2023-03-26T05:44:00.224Z,86.9515
2023-03-26T05:45:02.445Z,87.3823
2023-03-26T05:46:04.647Z,87.3678
2023-03-26T05:47:06.872Z,87.5311
2023-03-26T05:48:09.051Z,88.6864
2023-03-26T05:49:11.266Z,89.3203
2023-03-26T05:50:13.431Z,89.4440
2023-03-26T05:51:15.701Z,90.2051
2023-03-26T05:52:17.939Z,90.4622
2023-03-26T05:54:22.261Z,91.4905
2023-03-26T05:55:24.508Z,91.5784
2023-03-26T05:57:28.892Z,91.3225
2023-03-26T05:58:31.139Z,91.8390
2023-03-26T05:59:33.349Z,91.2170
2023-03-26T06:00:35.509Z,92.0048
2023-03-26T06:01:37.711Z,92.4764
2023-03-26T06:02:39.911Z,92.6344
2023-03-26T06:03:42.168Z,92.6259
2023-03-26T06:04:44.393Z,92.6874
2023-03-26T06:05:46.623Z,93.0417
2023-03-26T06:06:48.787Z,93.3392
2023-03-26T06:07:51.033Z,93.5555
2023-03-26T06:09:01.395Z,93.4780
2023-03-26T06:09:56.867Z,93.6521
2023-03-26T06:10:59.043Z,93.7103
2023-03-26T06:12:01.220Z,93.7016
2023-03-26T06:13:03.490Z,93.6408
2023-03-26T06:14:05.709Z,93.5972
2023-03-26T06:15:07.860Z,93.6470
2023-03-26T06:16:10.134Z,93.8453
2023-03-26T06:17:13.746Z,93.0962
2023-03-26T06:18:15.984Z,92.7173
2023-03-26T06:19:18.122Z,91.4578
2023-03-26T06:20:20.341Z,91.2999
2023-03-26T06:21:22.611Z,90.9174
2023-03-26T06:22:24.839Z,91.0979
2023-03-26T06:23:27.019Z,91.8191
2023-03-26T06:24:29.161Z,92.0631
2023-03-26T06:25:31.355Z,92.1095
2023-03-26T06:26:33.563Z,91.8029
2023-03-26T06:27:35.763Z,90.2312
2023-03-26T06:28:37.935Z,91.0570
2023-03-26T06:29:40.150Z,91.9742
2023-03-26T06:30:42.339Z,91.2077
2023-03-26T06:31:44.563Z,89.9876
2023-03-26T06:32:46.792Z,90.1336
2023-03-26T06:33:48.999Z,91.1530
2023-03-26T06:34:51.234Z,91.8441
2023-03-26T06:35:53.432Z,92.3754
2023-03-26T06:36:55.625Z,92.5865
2023-03-26T06:37:57.803Z,92.9015
2023-03-26T06:40:02.012Z,93.0058
2023-03-26T06:41:04.238Z,93.0644
2023-03-26T06:42:06.452Z,93.0395
2023-03-26T06:43:10.941Z,93.0544
2023-03-26T06:44:09.093Z,93.2705
2023-03-26T06:45:11.312Z,93.2950
2023-03-26T06:46:13.552Z,93.3260
2023-03-26T06:47:15.787Z,92.8820
2023-03-26T06:48:18.019Z,93.2283
2023-03-26T06:49:20.180Z,93.3654
2023-03-26T06:50:22.452Z,93.5966
2023-03-26T06:51:24.642Z,93.5938
2023-03-26T06:52:26.873Z,92.9548
2023-03-26T06:53:29.024Z,93.2103
2023-03-26T06:54:31.288Z,92.4628
2023-03-26T06:55:33.557Z,92.7941
2023-03-26T06:56:35.729Z,92.9847
2023-03-26T06:57:37.964Z,93.0182
2023-03-26T06:58:40.233Z,92.8744
2023-03-26T06:59:42.412Z,92.8846
2023-03-26T07:00:44.731Z,93.1367
2023-03-26T07:01:46.924Z,93.7302
2023-03-26T07:02:49.128Z,93.7547
2023-03-26T07:03:51.333Z,93.4454
2023-03-26T07:04:53.522Z,93.7811
2023-03-26T07:05:55.745Z,93.9913
2023-03-26T07:06:57.970Z,93.8873
2023-03-26T07:08:00.160Z,92.0624
2023-03-26T07:10:04.417Z,89.0677
2023-03-26T07:11:06.681Z,90.8930
2023-03-26T07:12:08.863Z,90.2081
2023-03-26T07:13:11.157Z,88.2500
2023-03-26T07:14:13.383Z,87.5404
2023-03-26T07:15:15.577Z,87.1821
2023-03-26T07:16:17.789Z,85.9581
2023-03-26T07:17:19.962Z,86.6019
2023-03-26T07:18:22.199Z,86.7095
2023-03-26T07:19:24.337Z,84.6917
2023-03-26T07:21:28.608Z,86.6976
2023-03-26T07:22:30.809Z,86.6609
2023-03-26T07:23:33.169Z,86.6539
2023-03-26T07:24:35.373Z,86.0194
2023-03-26T07:25:37.606Z,86.4205
2023-03-26T07:26:39.792Z,86.2842
2023-03-26T07:27:42.021Z,85.6761
2023-03-26T07:28:44.230Z,85.6251
2023-03-26T07:29:47.949Z,86.2182
2023-03-26T07:30:50.088Z,86.7585
2023-03-26T07:31:52.530Z,86.8117
2023-03-26T07:32:54.775Z,87.1364
2023-03-26T07:33:56.957Z,87.0151
2023-03-26T07:34:59.190Z,87.2759
2023-03-26T07:36:01.370Z,88.2238
2023-03-26T07:37:03.637Z,88.1670
2023-03-26T07:38:05.853Z,88.2002
2023-03-26T07:39:08.012Z,88.0410
2023-03-26T07:40:10.261Z,87.2645
2023-03-26T07:42:14.513Z,87.6055
2023-03-26T07:43:16.668Z,87.2758
2023-03-26T07:44:18.877Z,87.5295
2023-03-26T07:45:21.082Z,89.4475
2023-03-26T07:46:23.307Z,88.3320
2023-03-26T07:48:27.654Z,86.6472
2023-03-26T07:49:29.868Z,86.7628
2023-03-26T07:50:32.077Z,87.1877
2023-03-26T07:51:34.272Z,86.6250
2023-03-26T07:52:36.499Z,86.3185
2023-03-26T07:53:38.721Z,86.5859
2023-03-26T07:54:41.026Z,86.7477
2023-03-26T07:55:43.223Z,86.9715
2023-03-26T07:56:45.558Z,86.8275
2023-03-26T07:57:47.771Z,86.5099
2023-03-26T07:58:49.912Z,86.5009
2023-03-26T08:02:58.330Z,88.8224
2023-03-26T08:05:02.756Z,87.2758
2023-03-26T08:06:05.176Z,87.4769
2023-03-26T08:07:07.343Z,87.0956
2023-03-26T08:08:09.558Z,87.4128
2023-03-26T08:09:11.742Z,89.1321
2023-03-26T08:10:13.932Z,89.1063
2023-03-26T08:12:18.130Z,89.2076
2023-03-26T08:13:20.370Z,89.3792
2023-03-26T08:14:22.572Z,89.2184
2023-03-26T08:15:24.750Z,88.9228
2023-03-26T08:17:30.647Z,88.9496
2023-03-26T08:18:29.226Z,89.0847
2023-03-26T08:19:31.453Z,88.7623
2023-03-26T08:20:33.607Z,88.4815
2023-03-26T08:21:35.837Z,88.6460
2023-03-26T08:22:37.959Z,88.9187
2023-03-26T08:23:50.371Z,89.0157
2023-03-26T08:24:43.833Z,88.8356
2023-03-26T08:25:46.061Z,89.4306
2023-03-26T08:26:48.220Z,90.1635
2023-03-26T08:27:50.448Z,89.7696
2023-03-26T08:28:52.581Z,89.6546
2023-03-26T08:29:54.761Z,90.1288
2023-03-26T08:30:57.317Z,90.7045
2023-03-26T08:32:00.024Z,90.5604
2023-03-26T08:34:04.215Z,89.8310
2023-03-26T08:35:06.421Z,90.0203
2023-03-26T08:37:10.696Z,91.3038
2023-03-26T08:38:12.889Z,90.1359
2023-03-26T08:39:15.009Z,89.6229
2023-03-26T08:41:19.229Z,90.1142
2023-03-26T08:43:23.505Z,89.8937
2023-03-26T08:44:25.703Z,89.8774
2023-03-26T08:45:27.976Z,89.7100
2023-03-26T08:46:30.159Z,89.4010
2023-03-26T08:47:32.329Z,89.5809
2023-03-26T08:48:34.625Z,89.1679
2023-03-26T08:49:36.823Z,89.7174
2023-03-26T08:50:38.977Z,88.9229
2023-03-26T08:51:41.103Z,89.3527
2023-03-26T08:52:43.332Z,90.0215
2023-03-26T08:53:45.467Z,89.4425
2023-03-26T08:54:47.695Z,88.8370
2023-03-26T08:55:49.832Z,89.0513
2023-03-26T08:57:54.074Z,89.0030
2023-03-26T08:58:56.286Z,89.3087
2023-03-26T08:59:59.278Z,89.0670
2023-03-26T09:00:58.489Z,88.8684
2023-03-26T09:02:00.735Z,89.1165
2023-03-26T09:03:02.900Z,88.8496
2023-03-26T09:04:05.108Z,88.5249
2023-03-26T09:05:07.405Z,88.6137
2023-03-26T09:06:09.515Z,89.9830
2023-03-26T09:07:11.738Z,90.6324
2023-03-26T09:09:19.153Z,90.4991
2023-03-26T09:10:17.419Z,90.2103
2023-03-26T09:11:19.627Z,89.9283
2023-03-26T09:12:22.842Z,90.1651
2023-03-26T09:13:23.208Z,90.8321
2023-03-26T09:14:25.373Z,90.7300
2023-03-26T09:15:27.534Z,89.6967
2023-03-26T09:16:29.762Z,89.3843
2023-03-26T09:18:33.959Z,87.2733
2023-03-26T09:19:36.142Z,88.5363
2023-03-26T09:20:38.422Z,89.1791
2023-03-26T09:22:42.683Z,88.6464
2023-03-26T09:23:44.865Z,88.5290
2023-03-26T09:25:49.065Z,88.2641
2023-03-26T09:26:51.277Z,86.9533
2023-03-26T09:27:53.441Z,87.7112
2023-03-26T09:28:55.613Z,87.3140
2023-03-26T09:29:57.772Z,86.0110
2023-03-26T09:30:59.976Z,85.5492
2023-03-26T09:32:02.133Z,85.7683
2023-03-26T09:33:04.324Z,85.9992
2023-03-26T09:34:06.504Z,86.9130
2023-03-26T09:35:08.648Z,86.4940
2023-03-26T09:36:11.225Z,86.3347
2023-03-26T09:37:13.442Z,86.1456
2023-03-26T09:38:15.632Z,86.1338
2023-03-26T09:39:17.802Z,86.0590
2023-03-26T09:40:19.990Z,85.5195
2023-03-26T09:41:22.200Z,85.3516
2023-03-26T09:42:24.394Z,85.2227
2023-03-26T09:44:28.670Z,84.3941
2023-03-26T09:45:30.948Z,84.9647
2023-03-26T09:47:35.182Z,84.6892
2023-03-26T09:48:37.413Z,85.1504
2023-03-26T09:49:39.557Z,84.3083
2023-03-26T09:50:41.778Z,84.1192
2023-03-26T09:51:44.038Z,84.1624
2023-03-26T09:52:46.196Z,83.2537
2023-03-26T09:53:48.355Z,83.4226
2023-03-26T09:54:50.585Z,83.7120
2023-03-26T09:56:54.876Z,82.7714
2023-03-26T09:57:56.994Z,81.4873
2023-03-26T09:58:59.193Z,80.1136
2023-03-26T10:00:01.367Z,80.4082
2023-03-26T10:01:03.636Z,81.1638
2023-03-26T10:02:05.894Z,82.2515
2023-03-26T10:03:08.148Z,81.5840
2023-03-26T10:04:10.373Z,81.2179
2023-03-26T10:05:12.597Z,81.8952
2023-03-26T10:06:14.856Z,81.6963
2023-03-26T10:07:17.020Z,80.6468
2023-03-26T10:08:19.287Z,81.6334
2023-03-26T10:09:21.439Z,82.2057
2023-03-26T10:10:23.654Z,81.8765
2023-03-26T10:11:25.814Z,81.2643
2023-03-26T10:12:28.206Z,81.4129
2023-03-26T10:13:30.497Z,81.8338
2023-03-26T10:14:32.658Z,81.9012
2023-03-26T10:15:34.961Z,81.4059
2023-03-26T10:16:37.301Z,81.1347
2023-03-26T10:17:39.569Z,80.1460
2023-03-26T10:18:41.713Z,80.7401
2023-03-26T10:19:44.236Z,80.9013
2023-03-26T10:20:46.527Z,79.7777
2023-03-26T10:21:48.718Z,79.4931
2023-03-26T10:22:50.977Z,79.8183
2023-03-26T10:23:53.120Z,79.5016
2023-03-26T10:24:55.363Z,79.8016
2023-03-26T10:25:57.673Z,80.2191
2023-03-26T10:27:09.113Z,79.9152
2023-03-26T10:28:03.589Z,79.8728
2023-03-26T10:29:05.824Z,79.4078
2023-03-26T10:30:08.014Z,79.4781
2023-03-26T10:31:10.179Z,79.4953
2023-03-26T10:32:12.452Z,78.9141
2023-03-26T10:33:14.891Z,79.3106
2023-03-26T10:34:28.659Z,79.2458
2023-03-26T10:35:20.833Z,78.9253
2023-03-26T10:37:25.153Z,78.5955
2023-03-26T10:38:27.385Z,78.8916
2023-03-26T10:39:37.216Z,78.9794
2023-03-26T10:40:33.265Z,78.9291
2023-03-26T10:41:35.498Z,79.5009
2023-03-26T10:42:37.641Z,79.4469
2023-03-26T10:43:39.829Z,79.5580
2023-03-26T10:44:42.048Z,79.9367
2023-03-26T10:45:44.340Z,79.4223
2023-03-26T10:46:46.715Z,79.2811
2023-03-26T10:47:49.129Z,80.1828
2023-03-26T10:49:53.310Z,79.5371
2023-03-26T10:50:55.785Z,78.3086
2023-03-26T10:51:58.872Z,77.4820
2023-03-26T10:53:01.083Z,77.6484
2023-03-26T10:54:03.500Z,77.0511
2023-03-26T10:55:05.695Z,78.5505
2023-03-26T10:56:07.948Z,78.6010
2023-03-26T10:57:10.317Z,78.5842
2023-03-26T10:58:12.494Z,78.2996
2023-03-26T10:59:15.057Z,77.8253
2023-03-26T11:00:17.516Z,76.7716
2023-03-26T11:01:19.790Z,76.5476
2023-03-26T11:02:29.299Z,77.1834
2023-03-26T11:03:25.937Z,77.3709
2023-03-26T11:04:28.082Z,77.0765
2023-03-26T11:05:30.366Z,77.2298
2023-03-26T11:06:32.629Z,77.4074
2023-03-26T11:07:34.821Z,77.2875
2023-03-26T11:08:36.950Z,76.2814
2023-03-26T11:09:39.207Z,75.5463
2023-03-26T11:10:41.411Z,74.9339
2023-03-26T11:11:43.932Z,75.6429
2023-03-26T11:12:46.180Z,75.8267
2023-03-26T11:13:48.361Z,76.2118
2023-03-26T11:14:50.628Z,76.3969
2023-03-26T11:15:53.046Z,75.8586
2023-03-26T11:16:55.387Z,74.8368
2023-03-26T11:17:57.614Z,73.9917
2023-03-26T11:18:59.754Z,73.1097
2023-03-26T11:20:01.953Z,73.2568
2023-03-26T11:21:19.106Z,73.0496
2023-03-26T11:22:07.964Z,74.3510
2023-03-26T11:23:10.100Z,72.0675
2023-03-26T11:24:13.264Z,72.3139
2023-03-26T11:25:15.418Z,72.0900
2023-03-26T11:26:17.690Z,72.9607
2023-03-26T11:27:21.323Z,71.9992
2023-03-26T11:28:21.140Z,71.8914
2023-03-26T11:29:32.297Z,72.5438
2023-03-26T11:30:26.917Z,72.4223
2023-03-26T11:31:29.243Z,72.5051
2023-03-26T11:32:31.513Z,72.1406
2023-03-26T11:33:33.619Z,72.0188
2023-03-26T11:34:35.822Z,71.8713
2023-03-26T11:35:40.625Z,72.3903
2023-03-26T11:36:39.150Z,70.4185
2023-03-26T11:37:41.324Z,71.2969
2023-03-26T11:39:45.581Z,71.8446
2023-03-26T11:40:47.680Z,71.5062
2023-03-26T11:41:49.880Z,71.8286
2023-03-26T11:42:52.045Z,71.0375
2023-03-26T11:43:54.368Z,70.3832
2023-03-26T11:44:56.794Z,70.8847
2023-03-26T11:45:59.131Z,69.9518
2023-03-26T11:47:01.370Z,70.5878
2023-03-26T11:48:03.571Z,70.4792
2023-03-26T11:49:05.719Z,70.9303
2023-03-26T11:52:12.000Z,70.1379
2023-03-26T11:53:14.183Z,70.0206
2023-03-26T11:54:16.405Z,69.9077
2023-03-26T11:55:18.608Z,69.8060
2023-03-26T11:56:20.837Z,69.4671
2023-03-26T11:57:23.067Z,69.3681
2023-03-26T11:58:25.261Z,67.3117
2023-03-26T11:59:27.421Z,68.2041
2023-03-26T12:01:31.792Z,67.6469
2023-03-26T12:02:34.156Z,67.7162
2023-03-26T12:04:38.524Z,66.9067
2023-03-26T12:05:40.692Z,66.6849
2023-03-26T12:06:42.794Z,67.2778
2023-03-26T12:07:44.913Z,67.3443
2023-03-26T12:08:47.093Z,67.4558
2023-03-26T12:09:49.246Z,67.6528
2023-03-26T12:10:51.427Z,67.5192
2023-03-26T12:11:53.635Z,68.0145
2023-03-26T12:12:55.822Z,68.3339
2023-03-26T12:13:58.046Z,66.2885
2023-03-26T12:15:00.204Z,66.6269
2023-03-26T12:16:02.357Z,66.9563
2023-03-26T12:17:04.623Z,66.8619
2023-03-26T12:18:27.757Z,65.9503
2023-03-26T12:19:07.848Z,64.3136
2023-03-26T12:20:09.962Z,64.0562
2023-03-26T12:21:12.248Z,64.6688
2023-03-26T12:22:14.409Z,64.4707
2023-03-26T12:23:16.707Z,64.2027
2023-03-26T12:24:18.966Z,64.8391
2023-03-26T12:25:21.181Z,65.3262
2023-03-26T12:26:23.357Z,65.5425
2023-03-26T12:27:25.511Z,65.3596
2023-03-26T12:28:27.660Z,65.3275
2023-03-26T12:29:29.807Z,65.9022
2023-03-26T12:30:32.068Z,66.7083
2023-03-26T12:31:34.270Z,66.4484
2023-03-26T12:32:45.868Z,68.6860
2023-03-26T12:33:40.220Z,72.2279
2023-03-26T12:34:42.434Z,72.9726
2023-03-26T12:35:44.695Z,74.3417
2023-03-26T12:36:46.950Z,73.8127
2023-03-26T12:39:16.731Z,71.7584
2023-03-26T12:40:09.271Z,71.8957
2023-03-26T12:40:58.524Z,70.8368
2023-03-26T12:47:56.670Z,68.0186
2023-03-26T12:47:58.583Z,67.7944
2023-03-26T12:48:16.177Z,68.0552
2023-03-26T12:49:18.934Z,67.4660
2023-03-26T12:50:34.436Z,65.6953
2023-03-26T12:51:24.900Z,63.3883
2023-03-26T12:52:27.053Z,61.4563
2023-03-26T12:54:31.285Z,59.8168
2023-03-26T12:55:33.443Z,59.7979
2023-03-26T12:57:37.991Z,60.1913
2023-03-26T12:59:42.148Z,58.7378
2023-03-26T13:00:44.259Z,59.4875
2023-03-26T13:01:46.347Z,59.4315
2023-03-26T13:02:48.611Z,59.4849
2023-03-26T13:03:52.824Z,60.1156
2023-03-26T13:05:05.050Z,62.8290
2023-03-26T13:05:58.580Z,62.5621
2023-03-26T13:07:02.268Z,62.5801
2023-03-26T13:08:04.722Z,65.0402
2023-03-26T13:09:06.922Z,66.4645
2023-03-26T13:10:09.216Z,65.9397
2023-03-26T13:11:11.464Z,66.1343
2023-03-26T13:12:13.758Z,66.7941
2023-03-26T13:13:15.881Z,66.4070
2023-03-26T13:14:18.113Z,66.2203
2023-03-26T13:15:20.326Z,65.9820
2023-03-26T13:16:22.505Z,65.0729
2023-03-26T13:17:24.893Z,65.5058
2023-03-26T13:18:27.038Z,66.3207
2023-03-26T13:19:29.221Z,67.0436
2023-03-26T13:20:31.430Z,66.7649
2023-03-26T13:21:33.630Z,65.3910
2023-03-26T13:22:35.807Z,66.8861
2023-03-26T13:23:37.937Z,65.6369
2023-03-26T13:24:40.233Z,62.1945
2023-03-26T13:25:42.333Z,60.8819
2023-03-26T13:26:44.484Z,58.9345
2023-03-26T13:27:46.586Z,62.0595
2023-03-26T13:30:52.918Z,64.4220
2023-03-26T13:31:55.352Z,66.1675
2023-03-26T13:32:57.573Z,63.8759
2023-03-26T13:33:59.765Z,64.2296
2023-03-26T13:35:01.966Z,65.5813
2023-03-26T13:36:21.768Z,67.0079
2023-03-26T13:37:07.746Z,66.5510
2023-03-26T13:39:12.002Z,63.5031
2023-03-26T13:40:14.193Z,62.0082
2023-03-26T13:42:18.516Z,63.8047
2023-03-26T13:43:20.626Z,61.1574
2023-03-26T13:44:22.806Z,61.4708
2023-03-26T13:45:24.945Z,62.1733